Time;durP1;ratioP1;P1;durP2;ratioP2;P2;SDS_P1;SDS_P2;PMS_P1;PMS_P2;Temp;Humidity;BMP_temperature;BMP_pressure;BME280_temperature;BME280_humidity;BME280_pressure;Samples;Min_cycle;Max_cycle;Signal;HPM_P1;HPM_P2
2022/06/29 00:00:27;;;;;;;4.93;3.03;;;;;;;15.48;78.89;101738.03;2096348;28;26823;-69
2022/06/29 00:01:29;;;;;;;4.40;2.80;;;;;;;15.44;78.70;101737.25;2096263;28;26537;-70
2022/06/29 00:02:31;;;;;;;3.05;2.72;;;;;;;15.44;78.98;101741.75;2095634;28;22811;-69
2022/06/29 00:03:32;;;;;;;3.97;3.10;;;;;;;15.43;79.41;101735.50;2096235;28;21144;-70
2022/06/29 00:04:34;;;;;;;4.50;3.33;;;;;;;15.39;79.18;101744.59;2096480;28;22614;-69
2022/06/29 00:05:36;;;;;;;3.45;2.67;;;;;;;15.34;79.17;101741.16;2096435;28;24889;-69
2022/06/29 00:06:38;;;;;;;4.03;2.97;;;;;;;15.37;79.84;101742.88;2095496;28;26602;-69
2022/06/29 00:07:43;;;;;;;3.50;2.90;;;;;;;15.35;79.72;101739.34;2095900;28;20033;-69
2022/06/29 00:08:47;;;;;;;3.38;3.00;;;;;;;15.31;79.27;101738.56;2095797;28;28814;-70
2022/06/29 00:09:49;;;;;;;4.43;3.15;;;;;;;15.27;79.72;101737.75;2095215;28;32015;-69
2022/06/29 00:10:51;;;;;;;3.42;3.03;;;;;;;15.24;78.99;101743.25;2096068;28;37014;-69
2022/06/29 00:11:52;;;;;;;5.40;3.20;;;;;;;15.26;80.42;101733.28;2096109;28;29261;-70
2022/06/29 00:12:54;;;;;;;7.57;3.50;;;;;;;15.24;79.61;101743.25;2095602;28;25720;-70
2022/06/29 00:13:56;;;;;;;4.75;3.03;;;;;;;15.23;79.68;101730.66;2096097;28;20979;-70
2022/06/29 00:15:02;;;;;;;3.05;2.78;;;;;;;15.19;79.81;101731.69;2086667;28;41141;-70
2022/06/29 00:16:05;;;;;;;4.57;3.60;;;;;;;15.18;79.68;101729.94;2087709;28;35015;-70
2022/06/29 00:18:44;;;;;;;3.80;3.38;;;;;;;15.15;80.04;101730.03;2072225;28;20129;-71
2022/06/29 00:19:46;;;;;;;4.07;3.20;;;;;;;15.12;79.73;101731.94;2076053;28;20150;-71
2022/06/29 00:20:48;;;;;;;3.95;3.22;;;;;;;15.12;80.58;101724.72;2077654;28;22521;-72
2022/06/29 00:21:50;;;;;;;5.97;3.63;;;;;;;15.11;80.00;101728.38;2070777;28;20892;-71
2022/06/29 00:22:54;;;;;;;4.07;3.20;;;;;;;15.09;80.50;101722.09;2070989;28;21523;-71
2022/06/29 00:23:57;;;;;;;4.38;3.30;;;;;;;15.08;80.10;101723.06;2071361;28;30357;-71
2022/06/29 00:24:59;;;;;;;3.88;3.47;;;;;;;15.03;80.27;101722.28;2069972;28;20054;-72
2022/06/29 00:26:01;;;;;;;3.38;3.08;;;;;;;15.02;80.24;101718.72;2071444;28;20035;-71
2022/06/29 00:27:03;;;;;;;5.82;3.55;;;;;;;15.02;80.69;101717.81;2078420;28;24044;-71
2022/06/29 00:28:06;;;;;;;5.28;3.25;;;;;;;15.03;80.86;101719.59;2079448;28;20156;-72
2022/06/29 00:29:08;;;;;;;5.95;3.45;;;;;;;15.02;80.37;101713.31;2078445;28;25443;-71
2022/06/29 00:30:11;;;;;;;4.85;3.88;;;;;;;15.04;80.80;101714.16;2070428;28;33184;-72
2022/06/29 00:31:17;;;;;;;4.53;3.78;;;;;;;15.03;80.73;101712.38;2070794;28;20038;-71
2022/06/29 00:32:19;;;;;;;3.83;3.50;;;;;;;15.05;80.94;101713.22;2071649;28;24193;-72
2022/06/29 00:33:23;;;;;;;4.30;3.95;;;;;;;15.00;80.45;101704.41;2070969;28;21203;-72
2022/06/29 00:34:25;;;;;;;4.50;3.97;;;;;;;14.99;81.04;101715.22;2070040;28;38141;-71
2022/06/29 00:35:29;;;;;;;5.55;3.78;;;;;;;14.97;81.06;101709.88;2070852;28;20673;-72
2022/06/29 00:36:31;;;;;;;5.65;3.85;;;;;;;14.94;80.68;101709.09;2071645;28;20132;-71
2022/06/29 00:37:33;;;;;;;4.68;3.60;;;;;;;14.92;80.70;101703.72;2070010;28;41227;-71
2022/06/29 00:38:35;;;;;;;4.72;3.72;;;;;;;14.88;81.32;101702.94;2071065;28;20042;-71
2022/06/29 00:39:37;;;;;;;5.03;4.13;;;;;;;14.92;81.53;101710.94;2071240;28;26919;-71
2022/06/29 00:40:39;;;;;;;9.70;4.10;;;;;;;14.89;81.07;101714.59;2070496;28;25999;-72
2022/06/29 00:41:45;;;;;;;4.22;3.80;;;;;;;14.89;81.30;101711.91;2071500;28;21467;-71
2022/06/29 00:42:47;;;;;;;4.85;3.60;;;;;;;14.87;80.92;101706.53;2070671;28;29732;-71
2022/06/29 00:43:48;;;;;;;4.35;3.95;;;;;;;14.85;81.15;101708.41;2071649;28;21680;-71
2022/06/29 00:44:50;;;;;;;5.38;3.80;;;;;;;14.85;80.91;101705.72;2078957;28;21077;-71
2022/06/29 00:45:52;;;;;;;5.15;4.45;;;;;;;14.85;81.44;101707.53;2070582;28;26623;-72
2022/06/29 00:46:58;;;;;;;7.32;4.20;;;;;;;14.83;81.51;101714.78;2070897;28;20047;-71
2022/06/29 00:48:03;;;;;;;4.57;4.13;;;;;;;14.85;81.59;101707.53;2072070;28;21061;-71
2022/06/29 00:49:05;;;;;;;4.35;3.95;;;;;;;14.81;81.24;101703.16;2074747;28;27532;-71
2022/06/29 00:50:07;;;;;;;4.88;4.38;;;;;;;14.81;81.25;101713.94;2071534;28;25717;-71
2022/06/29 00:51:11;;;;;;;6.80;4.43;;;;;;;14.83;81.40;101706.69;2071004;28;32841;-72
2022/06/29 00:52:17;;;;;;;4.82;4.40;;;;;;;14.76;81.39;101703.28;2071247;28;27726;-71
2022/06/29 00:53:21;;;;;;;5.32;4.82;;;;;;;14.78;81.14;101697.84;2072157;28;24095;-72
2022/06/29 00:54:23;;;;;;;4.95;3.95;;;;;;;14.76;80.97;101705.97;2071595;28;29840;-72
2022/06/29 00:55:29;;;;;;;8.75;4.85;;;;;;;14.73;81.01;101702.47;2056485;28;21929;-72
2022/06/29 00:56:31;;;;;;;6.50;4.38;;;;;;;14.72;80.90;101703.44;2065227;28;20078;-73
2022/06/29 00:57:40;;;;;;;4.78;4.30;;;;;;;14.71;81.70;101699.81;2079819;28;20144;-72
2022/06/29 00:58:42;;;;;;;4.28;3.97;;;;;;;14.72;81.54;101700.72;2072100;28;27319;-72
2022/06/29 00:59:47;;;;;;;5.07;4.30;;;;;;;14.69;80.91;101701.69;2073001;28;30523;-72
2022/06/29 01:00:51;;;;;;;4.70;4.30;;;;;;;14.66;81.47;101701.75;2080255;28;20184;-72
2022/06/29 01:01:53;;;;;;;5.22;4.82;;;;;;;14.67;81.71;101692.75;2072080;28;20034;-71
2022/06/29 01:03:00;;;;;;;5.00;4.30;;;;;;;14.72;81.36;101703.44;2070591;28;38245;-71
2022/06/29 01:04:02;;;;;;;6.38;4.60;;;;;;;14.68;81.32;101691.84;2072291;28;25075;-71
2022/06/29 01:05:06;;;;;;;5.35;4.30;;;;;;;14.64;80.99;101701.81;2072902;28;24404;-72
2022/06/29 01:06:11;;;;;;;5.00;4.18;;;;;;;14.59;81.13;101698.38;2080110;28;20167;-71
2022/06/29 01:07:18;;;;;;;5.28;4.70;;;;;;;14.59;81.38;101694.75;2072030;28;23742;-71
2022/06/29 01:08:20;;;;;;;6.90;4.80;;;;;;;14.58;82.10;101696.59;2073325;28;31235;-72
2022/06/29 01:09:23;;;;;;;4.88;4.45;;;;;;;14.59;81.25;101695.69;2079946;28;20905;-71
2022/06/29 01:10:26;;;;;;;6.00;4.82;;;;;;;14.57;81.06;101689.41;2071767;28;42899;-72
2022/06/29 01:11:28;;;;;;;4.90;4.50;;;;;;;14.62;81.24;101698.25;2072675;28;20046;-71
2022/06/29 01:12:30;;;;;;;4.63;4.22;;;;;;;14.60;80.74;101693.84;2071745;28;34364;-71
2022/06/29 01:13:32;;;;;;;8.15;5.00;;;;;;;14.60;80.76;101691.16;2072188;28;21200;-71
2022/06/29 01:14:33;;;;;;;5.70;4.72;;;;;;;14.63;80.89;101688.38;2072706;28;20878;-71
2022/06/29 01:15:37;;;;;;;7.55;4.97;;;;;;;14.78;79.96;101696.03;2079701;28;29761;-73
2022/06/29 01:16:39;;;;;;;5.20;4.70;;;;;;;14.74;79.68;101683.56;2079890;28;25285;-73
2022/06/29 01:17:43;;;;;;;5.10;4.63;;;;;;;14.77;79.57;101687.97;2072435;28;22133;-72
2022/06/29 01:18:45;;;;;;;5.05;4.63;;;;;;;14.80;79.06;101682.50;2073262;28;34352;-73
2022/06/29 01:19:47;;;;;;;8.88;4.70;;;;;;;14.77;79.15;101683.50;2073582;28;24684;-73
2022/06/29 01:20:49;;;;;;;6.20;4.80;;;;;;;14.75;79.14;101679.06;2071326;28;26873;-70
2022/06/29 01:21:53;;;;;;;5.78;4.80;;;;;;;14.85;78.69;101677.88;2071705;28;23864;-71
2022/06/29 01:22:55;;;;;;;5.32;4.82;;;;;;;14.83;78.75;101685.13;2071918;28;20058;-72
2022/06/29 01:23:57;;;;;;;5.53;4.80;;;;;;;14.85;78.81;101684.13;2071726;28;27985;-73
2022/06/29 01:24:59;;;;;;;5.85;4.55;;;;;;;14.87;78.54;101679.56;2071865;28;29428;-71
2022/06/29 01:26:05;;;;;;;5.00;4.60;;;;;;;14.91;78.21;101676.81;2071809;28;31281;-72
2022/06/29 01:27:07;;;;;;;6.00;4.63;;;;;;;14.93;77.86;101677.63;2080626;28;20042;-71
2022/06/29 01:28:09;;;;;;;6.00;4.95;;;;;;;14.93;78.13;101670.44;2079564;28;20990;-71
2022/06/29 01:29:11;;;;;;;5.35;4.85;;;;;;;14.95;78.22;101667.69;2072713;28;20827;-71
2022/06/29 01:30:13;;;;;;;5.70;5.20;;;;;;;14.92;77.75;101670.50;2072504;28;20832;-72
2022/06/29 01:31:19;;;;;;;5.75;5.20;;;;;;;14.93;77.79;101672.25;2073110;28;20120;-72
2022/06/29 01:32:22;;;;;;;8.43;4.90;;;;;;;14.90;77.90;101667.84;2072086;28;38858;-72
2022/06/29 01:33:24;;;;;;;6.00;4.82;;;;;;;14.91;77.54;101668.72;2071827;28;20141;-72
2022/06/29 01:34:29;;;;;;;7.30;4.78;;;;;;;14.87;77.81;101666.09;2071963;28;26179;-72
2022/06/29 01:35:30;;;;;;;6.10;4.95;;;;;;;14.87;77.91;101671.50;2078736;28;35080;-71
2022/06/29 01:38:06;;;;;;;6.25;4.72;;;;;;;14.80;78.01;101666.34;2073643;28;20041;-64
2022/06/29 01:39:08;;;;;;;5.78;4.50;;;;;;;14.80;78.11;101667.19;2080226;28;20053;-63
2022/06/29 01:40:14;;;;;;;5.63;5.13;;;;;;;14.76;78.32;101662.84;2078681;28;22391;-64
2022/06/29 01:41:18;;;;;;;4.93;4.43;;;;;;;14.72;78.52;101668.38;2072566;28;20042;-63
2022/06/29 01:42:20;;;;;;;5.55;4.80;;;;;;;14.69;78.66;101667.50;2072365;28;23037;-63
2022/06/29 01:43:22;;;;;;;5.13;4.60;;;;;;;14.63;78.43;101667.69;2072187;28;34410;-63
2022/06/29 01:44:24;;;;;;;5.60;5.10;;;;;;;14.62;79.10;101662.34;2072470;28;21041;-64
2022/06/29 01:45:26;;;;;;;5.78;5.28;;;;;;;14.64;79.11;101663.19;2072656;28;24530;-63
2022/06/29 01:46:32;;;;;;;5.75;5.15;;;;;;;14.59;78.74;101659.72;2072789;28;20039;-63
2022/06/29 01:47:34;;;;;;;6.32;4.90;;;;;;;14.54;79.15;101665.22;2080044;28;22871;-63
2022/06/29 01:48:36;;;;;;;5.38;4.93;;;;;;;14.53;79.20;101666.16;2080098;28;20046;-63
2022/06/29 01:49:38;;;;;;;7.18;4.88;;;;;;;14.59;79.74;101666.03;2074911;28;20035;-63
2022/06/29 01:50:41;;;;;;;5.20;4.78;;;;;;;14.55;78.87;101664.28;2072315;28;25725;-63
2022/06/29 01:51:43;;;;;;;5.13;4.38;;;;;;;14.50;79.07;101666.25;2079690;28;36546;-63
2022/06/29 01:52:45;;;;;;;5.53;4.90;;;;;;;14.47;79.76;101667.19;2079805;28;21677;-63
2022/06/29 01:53:48;;;;;;;5.82;5.10;;;;;;;14.47;79.47;101664.50;2080044;28;20082;-64
2022/06/29 01:54:50;;;;;;;6.03;5.20;;;;;;;14.43;79.36;101664.66;2079270;28;25953;-63
2022/06/29 01:55:52;;;;;;;6.57;4.72;;;;;;;14.39;79.55;101660.25;2079846;28;20072;-64
2022/06/29 01:56:57;;;;;;;6.10;4.35;;;;;;;14.37;79.38;101662.09;2072536;28;20792;-63
2022/06/29 01:57:58;;;;;;;6.28;5.20;;;;;;;14.36;80.36;101657.66;2072665;28;27880;-64
2022/06/29 01:59:02;;;;;;;4.68;4.28;;;;;;;14.35;80.53;101664.84;2072303;28;20050;-63
2022/06/29 02:00:05;;;;;;;5.80;5.40;;;;;;;14.33;80.27;101658.63;2080055;28;21226;-64
2022/06/29 02:01:08;;;;;;;5.70;5.15;;;;;;;14.27;80.19;101658.78;2079837;28;20057;-63
2022/06/29 02:02:10;;;;;;;5.45;4.57;;;;;;;14.23;80.22;101660.69;2071579;28;36700;-64
2022/06/29 02:03:12;;;;;;;6.28;5.60;;;;;;;14.24;80.47;101658.88;2072236;28;24684;-63
2022/06/29 02:04:15;;;;;;;6.50;5.90;;;;;;;14.25;80.30;101658.84;2079279;28;23537;-63
2022/06/29 02:05:16;;;;;;;6.55;5.88;;;;;;;14.29;80.62;101660.50;2078540;28;30721;-63
2022/06/29 02:06:19;;;;;;;6.15;5.28;;;;;;;14.25;80.62;101655.25;2071258;28;38448;-63
2022/06/29 02:07:21;;;;;;;6.22;5.60;;;;;;;14.27;80.74;101659.66;2079180;28;32257;-62
2022/06/29 02:08:23;;;;;;;5.82;5.22;;;;;;;14.28;80.53;101657.84;2082626;28;20085;-63
2022/06/29 02:09:24;;;;;;;6.57;6.00;;;;;;;14.27;80.32;101658.78;2071960;28;28784;-63
2022/06/29 02:10:26;;;;;;;6.35;5.78;;;;;;;14.28;80.31;101653.38;2079620;28;21908;-63
2022/06/29 02:11:28;;;;;;;6.25;5.75;;;;;;;14.29;80.25;101657.81;2079604;28;20152;-63
2022/06/29 02:12:30;;;;;;;6.43;5.40;;;;;;;14.28;80.39;101655.16;2072119;28;24927;-63
2022/06/29 02:13:32;;;;;;;6.93;6.30;;;;;;;14.33;80.88;101653.22;2079774;28;23194;-63
2022/06/29 02:14:33;;;;;;;7.10;6.20;;;;;;;14.43;80.06;101649.38;2079442;28;36824;-63
2022/06/29 02:15:38;;;;;;;6.97;6.25;;;;;;;14.47;80.43;101648.34;2072130;28;20073;-63
2022/06/29 02:16:40;;;;;;;6.10;5.53;;;;;;;14.41;80.10;101648.53;2071898;28;22854;-63
2022/06/29 02:17:42;;;;;;;6.63;6.03;;;;;;;14.40;80.15;101646.75;2071738;28;31548;-63
2022/06/29 02:18:45;;;;;;;7.32;6.68;;;;;;;14.44;80.13;101645.72;2072014;28;20128;-65
2022/06/29 02:19:46;;;;;;;5.90;5.40;;;;;;;14.42;79.84;101647.59;2080531;28;32242;-64
2022/06/29 02:20:48;;;;;;;6.45;5.85;;;;;;;14.39;79.78;101654.88;2079872;28;20121;-64
2022/06/29 02:21:50;;;;;;;6.28;5.70;;;;;;;14.35;79.86;101643.28;2071567;28;31116;-64
2022/06/29 02:22:54;;;;;;;7.78;6.57;;;;;;;14.40;80.19;101648.56;2072074;28;20043;-65
2022/06/29 02:23:56;;;;;;;7.57;6.88;;;;;;;14.43;80.03;101646.66;2079513;28;20080;-65
2022/06/29 02:24:58;;;;;;;7.65;6.85;;;;;;;14.41;80.40;101644.94;2079529;28;23290;-64
2022/06/29 02:26:00;;;;;;;6.70;6.10;;;;;;;14.36;80.18;101644.19;2071745;28;31861;-64
2022/06/29 02:27:02;;;;;;;6.90;6.20;;;;;;;14.32;80.12;101644.28;2072491;28;21620;-65
2022/06/29 02:28:06;;;;;;;7.20;6.55;;;;;;;14.31;80.94;101644.31;2071735;28;28610;-64
2022/06/29 02:29:08;;;;;;;9.40;6.90;;;;;;;14.32;80.54;101646.97;2072595;28;20050;-64
2022/06/29 02:30:12;;;;;;;7.10;6.55;;;;;;;14.29;80.61;101641.66;2072054;28;21297;-64
2022/06/29 02:35:15;;;;;;;7.25;6.53;;;;;;;14.31;80.60;101649.69;2072023;28;33423;-64
2022/06/29 02:36:17;;;;;;;7.18;6.68;;;;;;;14.33;80.35;101643.31;2079427;28;20092;-64
2022/06/29 02:37:18;;;;;;;8.02;7.20;;;;;;;14.29;80.92;101641.66;2079527;28;21875;-64
2022/06/29 02:38:20;;;;;;;7.38;6.57;;;;;;;14.35;80.88;101642.41;2071891;28;24606;-65
2022/06/29 02:39:22;;;;;;;7.03;6.45;;;;;;;14.29;80.61;101641.66;2071918;28;33521;-65
2022/06/29 02:40:25;;;;;;;7.40;6.85;;;;;;;14.32;81.10;101641.56;2071919;28;26134;-65
2022/06/29 02:41:29;;;;;;;7.80;7.10;;;;;;;14.36;80.46;101641.50;2080006;28;20942;-64
2022/06/29 02:42:33;;;;;;;8.23;7.22;;;;;;;14.34;80.25;101641.53;2078439;28;31939;-64
2022/06/29 02:43:55;;;;;;;7.72;6.93;;;;;;;14.33;80.35;101639.75;2072132;28;20042;-65
2022/06/29 02:44:59;;;;;;;8.30;7.22;;;;;;;14.36;80.53;101637.00;2071707;28;32758;-64
2022/06/29 02:46:01;;;;;;;8.07;7.05;;;;;;;14.36;80.34;101645.06;2072451;28;20110;-64
2022/06/29 02:47:05;;;;;;;8.07;7.20;;;;;;;14.36;80.53;101637.00;2071689;28;36346;-65
2022/06/29 02:48:08;;;;;;;7.70;7.00;;;;;;;14.34;80.17;101633.47;2079172;28;37661;-64
2022/06/29 02:49:14;;;;;;;7.95;7.25;;;;;;;14.32;80.70;101632.63;2078864;28;20854;-64
2022/06/29 02:50:16;;;;;;;7.60;6.88;;;;;;;14.35;80.28;101635.22;2073487;28;29048;-64
2022/06/29 02:51:18;;;;;;;9.65;7.47;;;;;;;14.34;80.55;101630.75;2080323;28;28156;-65
2022/06/29 02:52:23;;;;;;;7.82;7.10;;;;;;;14.39;80.58;101630.63;2070989;28;28897;-64
2022/06/29 02:53:26;;;;;;;8.90;7.82;;;;;;;14.38;79.99;101627.06;2071333;28;20042;-65
2022/06/29 02:54:28;;;;;;;11.23;8.02;;;;;;;14.35;80.29;101627.13;2079655;28;27245;-65
2022/06/29 02:55:32;;;;;;;8.27;7.47;;;;;;;14.35;80.25;101624.44;2079223;28;23836;-65
2022/06/29 02:56:34;;;;;;;8.60;7.72;;;;;;;14.35;80.40;101624.44;2107652;22;29487;-72
2022/06/29 02:57:36;;;;;;;7.85;7.05;;;;;;;14.36;80.16;101623.53;2098760;28;28304;-72
2022/06/29 02:58:37;;;;;;;8.05;7.28;;;;;;;14.35;80.04;101621.75;2095926;28;27733;-72
2022/06/29 02:59:42;;;;;;;8.45;7.63;;;;;;;14.38;80.28;101613.56;2095616;28;36218;-72
2022/06/29 03:00:46;;;;;;;7.70;7.00;;;;;;;14.38;80.20;101618.97;2096825;28;20341;-72
2022/06/29 03:01:49;;;;;;;8.20;7.10;;;;;;;14.37;80.25;101614.50;2096475;28;25240;-72
2022/06/29 03:02:53;;;;;;;11.15;7.72;;;;;;;14.36;80.61;101615.44;2095248;28;25768;-72
2022/06/29 03:03:55;;;;;;;7.68;6.97;;;;;;;14.36;80.24;101614.56;2096252;28;27140;-72
2022/06/29 03:04:56;;;;;;;8.25;7.18;;;;;;;14.33;79.71;101615.50;2096890;28;22349;-72
2022/06/29 03:05:58;;;;;;;8.80;7.40;;;;;;;14.32;80.27;101611.94;2096744;28;27798;-72
2022/06/29 03:07:01;;;;;;;7.63;6.82;;;;;;;14.31;79.98;101617.38;2096478;28;21835;-72
2022/06/29 03:08:03;;;;;;;8.57;7.13;;;;;;;14.31;80.39;101611.97;2096801;28;20041;-72
2022/06/29 03:09:05;;;;;;;7.88;7.07;;;;;;;14.28;80.22;101612.97;2096492;28;25617;-70
2022/06/29 03:10:07;;;;;;;8.70;7.72;;;;;;;14.29;80.25;101616.53;2096867;28;20941;-72
2022/06/29 03:11:11;;;;;;;8.13;7.00;;;;;;;14.27;80.25;101618.38;2096741;28;20182;-72
2022/06/29 03:12:12;;;;;;;9.13;6.82;;;;;;;14.29;80.59;101616.53;2096833;28;20110;-72
2022/06/29 03:13:14;;;;;;;11.52;7.07;;;;;;;14.29;80.23;101611.16;2096686;28;24494;-72
2022/06/29 03:14:16;;;;;;;7.90;7.10;;;;;;;14.27;80.04;101611.19;2096958;28;20049;-71
2022/06/29 03:15:18;;;;;;;8.18;7.20;;;;;;;14.27;80.04;101608.50;2095848;28;25466;-72
2022/06/29 03:16:20;;;;;;;7.78;6.97;;;;;;;14.30;80.49;101613.81;2096514;28;20040;-71
2022/06/29 03:17:24;;;;;;;8.27;6.75;;;;;;;14.28;80.29;101615.66;2096249;28;28642;-71
2022/06/29 03:18:26;;;;;;;9.13;7.18;;;;;;;14.29;80.06;101611.16;2096641;28;20052;-71
2022/06/29 03:19:30;;;;;;;8.18;6.95;;;;;;;14.31;80.39;101617.38;2096454;28;20754;-71
2022/06/29 03:20:32;;;;;;;7.25;6.55;;;;;;;14.29;79.97;101612.03;2095390;28;34573;-71
2022/06/29 03:21:34;;;;;;;8.95;7.03;;;;;;;14.31;80.12;101611.97;2098024;28;26298;-70
2022/06/29 03:22:36;;;;;;;10.10;7.15;;;;;;;14.31;80.34;101622.75;2095747;28;38936;-70
2022/06/29 03:23:38;;;;;;;8.60;6.50;;;;;;;14.33;80.35;101605.63;2096564;28;26227;-71
2022/06/29 03:24:42;;;;;;;8.00;6.82;;;;;;;14.34;79.87;101617.28;2096184;28;20036;-71
2022/06/29 03:25:46;;;;;;;7.28;6.55;;;;;;;14.33;80.02;101610.13;2095806;28;23275;-71
2022/06/29 03:26:48;;;;;;;6.78;6.13;;;;;;;14.35;79.98;101610.09;2096455;28;23447;-71
2022/06/29 03:27:50;;;;;;;7.85;7.03;;;;;;;14.36;80.36;101618.13;2107373;28;20044;-71
2022/06/29 03:28:52;;;;;;;7.80;6.65;;;;;;;14.39;79.97;101612.66;2104313;28;26551;-71
2022/06/29 03:29:54;;;;;;;7.10;5.95;;;;;;;14.40;79.50;101611.72;2096614;28;20036;-71
2022/06/29 03:30:56;;;;;;;6.15;5.55;;;;;;;14.45;79.72;101609.78;2095605;28;27807;-71
2022/06/29 03:31:58;;;;;;;8.00;6.47;;;;;;;14.51;79.50;101616.81;2095843;28;28149;-71
2022/06/29 03:33:00;;;;;;;7.13;6.53;;;;;;;14.56;79.29;101611.31;2104033;28;20855;-71
2022/06/29 03:34:01;;;;;;;10.52;6.53;;;;;;;14.57;78.78;101599.56;2103982;28;36267;-71
2022/06/29 03:35:05;;;;;;;8.73;6.72;;;;;;;14.58;78.98;101604.09;2096007;28;21848;-72
2022/06/29 03:36:10;;;;;;;6.78;6.03;;;;;;;14.58;79.06;101598.69;2095199;28;20172;-71
2022/06/29 03:37:11;;;;;;;7.13;6.45;;;;;;;14.60;78.63;101599.53;2103966;28;23604;-71
2022/06/29 03:38:16;;;;;;;7.45;6.45;;;;;;;14.60;79.00;101603.09;2104351;28;25860;-71
2022/06/29 03:39:18;;;;;;;7.38;6.03;;;;;;;14.62;79.10;101606.63;2096445;28;22233;-72
2022/06/29 03:40:20;;;;;;;7.75;5.90;;;;;;;14.63;78.83;101603.00;2096609;28;20045;-72
2022/06/29 03:41:24;;;;;;;7.25;6.53;;;;;;;14.64;78.89;101604.78;2096428;28;25548;-71
2022/06/29 03:42:26;;;;;;;6.43;5.63;;;;;;;14.64;78.81;101595.81;2096490;28;22786;-71
2022/06/29 03:43:28;;;;;;;8.13;6.32;;;;;;;14.62;78.65;101605.75;2096400;28;23654;-71
2022/06/29 03:44:30;;;;;;;6.93;6.32;;;;;;;14.64;78.66;101598.50;2087345;28;20046;-71
2022/06/29 03:45:32;;;;;;;6.75;6.15;;;;;;;14.63;78.75;101607.53;2087928;28;22825;-71
2022/06/29 03:46:33;;;;;;;6.75;6.05;;;;;;;14.63;78.72;101596.75;2096481;28;23463;-71
2022/06/29 03:47:35;;;;;;;6.88;6.28;;;;;;;14.64;78.63;101604.78;2096636;28;20048;-71
2022/06/29 03:48:37;;;;;;;8.57;6.50;;;;;;;14.65;78.99;101609.25;2096240;28;31238;-72
2022/06/29 03:49:39;;;;;;;8.43;6.22;;;;;;;14.66;78.76;101607.41;2096554;28;21296;-72
2022/06/29 03:50:41;;;;;;;6.55;5.95;;;;;;;14.68;78.83;101610.97;2096094;28;28458;-72
2022/06/29 03:51:43;;;;;;;7.10;6.40;;;;;;;14.69;78.72;101607.34;2098959;28;20079;-72
2022/06/29 03:52:45;;;;;;;7.25;6.55;;;;;;;14.70;78.74;101609.13;2095913;28;34259;-71
2022/06/29 03:53:47;;;;;;;7.00;6.35;;;;;;;14.71;78.60;101608.16;2095833;28;27122;-72
2022/06/29 03:54:49;;;;;;;6.97;6.38;;;;;;;14.71;78.44;101594.69;2096364;28;28340;-72
2022/06/29 03:55:50;;;;;;;8.65;6.10;;;;;;;14.74;78.44;101610.78;2096330;28;20041;-71
2022/06/29 03:56:52;;;;;;;6.28;5.60;;;;;;;14.77;78.12;101605.31;2095951;28;33333;-71
2022/06/29 03:57:54;;;;;;;6.85;6.18;;;;;;;14.77;78.42;101608.00;2096413;28;20069;-71
2022/06/29 03:58:56;;;;;;;6.75;5.88;;;;;;;14.81;78.23;101603.41;2096138;28;23597;-72
2022/06/29 03:59:58;;;;;;;6.03;5.45;;;;;;;14.84;77.97;101601.50;2096617;28;20045;-71
2022/06/29 04:01:00;;;;;;;6.38;5.63;;;;;;;14.87;78.08;101601.38;2095112;28;32798;-72
2022/06/29 04:02:02;;;;;;;8.07;5.70;;;;;;;14.88;77.79;101597.78;2095052;28;20134;-72
2022/06/29 04:03:04;;;;;;;6.20;5.63;;;;;;;14.90;77.91;101605.81;2095883;28;35333;-72
2022/06/29 04:04:06;;;;;;;5.88;5.40;;;;;;;14.93;78.00;101599.44;2096083;28;26179;-72
2022/06/29 04:05:09;;;;;;;6.28;5.50;;;;;;;14.95;77.45;101595.78;2096272;28;22530;-72
2022/06/29 04:06:11;;;;;;;8.23;5.22;;;;;;;14.99;77.75;101599.28;2096577;28;20928;-72
2022/06/29 04:07:12;;;;;;;6.20;5.60;;;;;;;15.02;77.36;101599.16;2095601;28;28980;-72
2022/06/29 04:08:14;;;;;;;6.50;5.88;;;;;;;15.10;76.94;101598.94;2095461;28;26429;-72
2022/06/29 04:09:16;;;;;;;8.75;6.15;;;;;;;15.12;76.80;101589.84;2095741;28;25663;-71
2022/06/29 04:10:18;;;;;;;8.32;5.60;;;;;;;15.11;77.03;101588.09;2096536;28;23925;-72
2022/06/29 04:12:40;;;;;;;;;;;;;;;15.12;76.96;101587.16;2096956;28;25971;-72
2022/06/29 04:13:42;;;;;;;6.85;5.47;;;;;;;15.12;77.07;101597.06;2096842;28;20709;-72
2022/06/29 04:14:43;;;;;;;6.35;5.82;;;;;;;15.20;76.66;101587.81;2096471;28;23441;-72
2022/06/29 04:15:45;;;;;;;6.43;5.82;;;;;;;15.26;76.56;101590.28;2117634;22;31599;-72
2022/06/29 04:16:48;;;;;;;5.85;5.28;;;;;;;15.40;76.05;101588.97;2099250;28;27563;-73
2022/06/29 04:17:52;;;;;;;5.38;4.97;;;;;;;15.41;75.73;101596.13;2095473;28;22395;-72
2022/06/29 04:18:54;;;;;;;6.30;5.70;;;;;;;15.46;76.25;101592.34;2095423;28;28586;-73
2022/06/29 04:19:58;;;;;;;5.88;5.25;;;;;;;15.51;75.39;101597.59;2095746;28;20037;-73
2022/06/29 04:21:08;;;;;;;6.10;5.28;;;;;;;15.66;74.79;101588.97;2086332;28;28650;-72
2022/06/29 04:22:10;;;;;;;7.30;5.65;;;;;;;15.75;74.39;101590.50;2089290;28;20042;-72
2022/06/29 04:23:14;;;;;;;7.63;5.50;;;;;;;15.80;74.02;101587.66;2088238;28;20038;-73
2022/06/29 04:24:17;;;;;;;8.52;5.20;;;;;;;15.86;74.28;101592.84;2087269;28;32410;-72
2022/06/29 04:25:19;;;;;;;5.70;5.10;;;;;;;15.91;74.52;101588.16;2088167;28;20034;-73
2022/06/29 04:26:21;;;;;;;7.22;4.95;;;;;;;16.12;73.32;101588.38;2091641;28;27805;-72
2022/06/29 04:27:23;;;;;;;4.70;3.95;;;;;;;16.36;72.95;101576.66;2097619;28;20041;-71
2022/06/29 04:28:25;;;;;;;5.18;4.45;;;;;;;16.52;71.39;101581.50;2097873;28;20044;-72
2022/06/29 04:29:27;;;;;;;6.63;4.75;;;;;;;16.64;70.69;101578.34;2097383;28;34187;-73
2022/06/29 04:30:29;;;;;;;6.07;4.45;;;;;;;16.78;70.44;101584.09;2097635;28;22739;-72
2022/06/29 04:31:31;;;;;;;5.32;4.70;;;;;;;16.71;70.50;101582.56;2097291;28;20878;-73
2022/06/29 04:32:33;;;;;;;4.82;4.43;;;;;;;17.10;69.96;101579.28;2097807;28;22038;-72
2022/06/29 04:33:34;;;;;;;6.80;4.07;;;;;;;17.24;68.42;101575.13;2105867;28;20125;-72
2022/06/29 04:34:39;;;;;;;9.15;4.22;;;;;;;17.32;68.20;101586.53;2105317;28;27638;-72
2022/06/29 04:35:43;;;;;;;6.07;4.10;;;;;;;17.29;67.66;101579.41;2097170;28;21421;-72
2022/06/29 04:36:45;;;;;;;5.80;4.13;;;;;;;17.41;68.03;101579.84;2096831;28;35073;-72
2022/06/29 04:37:47;;;;;;;6.75;4.47;;;;;;;17.43;67.24;101586.09;2097000;28;35544;-72
2022/06/29 04:38:49;;;;;;;5.72;4.32;;;;;;;17.45;67.58;101581.50;2096714;28;34946;-73
2022/06/29 04:39:50;;;;;;;4.47;4.07;;;;;;;17.37;67.47;101576.38;2097183;28;26331;-73
2022/06/29 04:40:55;;;;;;;6.22;4.18;;;;;;;17.38;67.90;101580.84;2097829;28;24334;-73
2022/06/29 04:41:56;;;;;;;5.03;3.88;;;;;;;17.28;68.20;101583.06;2096826;28;20114;-73
2022/06/29 04:42:58;;;;;;;5.90;3.80;;;;;;;17.14;68.15;101580.03;2097034;28;22531;-73
2022/06/29 04:44:02;;;;;;;5.00;3.42;;;;;;;17.20;68.46;101577.06;2096837;28;22783;-73
2022/06/29 04:45:05;;;;;;;4.25;3.78;;;;;;;17.11;68.88;101572.91;2097021;28;20641;-73
2022/06/29 04:46:25;;;;;;;4.10;3.70;;;;;;;17.05;68.57;101574.97;2096510;28;32071;-72
2022/06/29 04:47:26;;;;;;;5.10;3.90;;;;;;;16.89;69.28;101575.59;2099436;28;22870;-73
2022/06/29 04:48:28;;;;;;;4.47;4.07;;;;;;;16.94;69.39;101572.69;2097620;28;21549;-73
2022/06/29 04:49:30;;;;;;;6.38;4.28;;;;;;;16.86;69.91;101572.13;2096959;28;23492;-73
2022/06/29 04:50:34;;;;;;;4.88;4.38;;;;;;;17.03;69.28;101568.75;2096000;28;24349;-72
2022/06/29 04:51:36;;;;;;;5.10;4.05;;;;;;;17.11;68.14;101572.91;2095477;28;34507;-73
2022/06/29 04:52:38;;;;;;;7.47;4.30;;;;;;;17.16;68.21;101578.16;2099094;28;24730;-73
2022/06/29 04:53:40;;;;;;;4.20;3.80;;;;;;;17.34;68.03;101573.81;2095928;28;37177;-73
2022/06/29 04:54:44;;;;;;;8.35;4.05;;;;;;;17.60;67.35;101570.00;2096361;28;29923;-73
2022/06/29 04:55:46;;;;;;;3.55;3.25;;;;;;;17.79;66.50;101570.09;2097085;28;20100;-73
2022/06/29 04:56:50;;;;;;;5.25;3.72;;;;;;;17.99;66.11;101560.25;2089130;28;35529;-73
2022/06/29 04:57:52;;;;;;;5.05;3.22;;;;;;;17.79;65.49;101561.97;2097152;28;20757;-73
2022/06/29 04:58:55;;;;;;;3.50;3.20;;;;;;;18.12;64.70;101559.66;2097528;28;20048;-73
2022/06/29 04:59:56;;;;;;;4.15;3.28;;;;;;;18.09;65.15;101567.06;2095833;28;29800;-73